sensor_id;sensor_type;location;lat;lon;timestamp;temperature;humidity
69225;DHT22;56333;51.306;17.056;2022-12-20T00:01:08;3.05;79.97
69225;DHT22;56333;51.306;17.056;2022-12-20T00:02:39;3.03;79.93
69225;DHT22;56333;51.306;17.056;2022-12-20T00:04:09;3.01;80.03
69225;DHT22;56333;51.306;17.056;2022-12-20T00:05:38;3.02;79.72
69225;DHT22;56333;51.306;17.056;2022-12-20T00:07:08;3.02;79.93
69225;DHT22;56333;51.306;17.056;2022-12-20T00:08:37;3.05;80.15
69225;DHT22;56333;51.306;17.056;2022-12-20T00:10:09;3.08;80.40
69225;DHT22;56333;51.306;17.056;2022-12-20T00:11:38;3.10;80.57
69225;DHT22;56333;51.306;17.056;2022-12-20T00:13:08;3.13;80.50
69225;DHT22;56333;51.306;17.056;2022-12-20T00:14:38;3.16;80.28
69225;DHT22;56333;51.306;17.056;2022-12-20T00:16:09;3.18;80.00
69225;DHT22;56333;51.306;17.056;2022-12-20T00:17:40;3.16;79.85
69225;DHT22;56333;51.306;17.056;2022-12-20T00:19:09;3.16;79.65
69225;DHT22;56333;51.306;17.056;2022-12-20T00:20:39;3.14;79.55
69225;DHT22;56333;51.306;17.056;2022-12-20T00:22:07;3.11;79.43
69225;DHT22;56333;51.306;17.056;2022-12-20T00:23:37;3.10;79.38
69225;DHT22;56333;51.306;17.056;2022-12-20T00:25:07;3.10;79.45
69225;DHT22;56333;51.306;17.056;2022-12-20T00:26:36;3.12;79.65
69225;DHT22;56333;51.306;17.056;2022-12-20T00:28:05;3.14;79.85
69225;DHT22;56333;51.306;17.056;2022-12-20T00:29:34;3.18;80.00
69225;DHT22;56333;51.306;17.056;2022-12-20T00:31:04;3.21;79.82
69225;DHT22;56333;51.306;17.056;2022-12-20T00:32:34;3.19;79.55
69225;DHT22;56333;51.306;17.056;2022-12-20T00:34:05;3.18;79.35
69225;DHT22;56333;51.306;17.056;2022-12-20T00:35:35;3.15;79.20
69225;DHT22;56333;51.306;17.056;2022-12-20T00:37:07;3.13;79.00
69225;DHT22;56333;51.306;17.056;2022-12-20T00:38:36;3.10;78.93
69225;DHT22;56333;51.306;17.056;2022-12-20T00:40:07;3.08;78.90
69225;DHT22;56333;51.306;17.056;2022-12-20T00:41:37;3.07;78.80
69225;DHT22;56333;51.306;17.056;2022-12-20T00:43:06;3.02;78.72
69225;DHT22;56333;51.306;17.056;2022-12-20T00:44:36;2.99;78.80
69225;DHT22;56333;51.306;17.056;2022-12-20T00:46:06;2.95;78.75
69225;DHT22;56333;51.306;17.056;2022-12-20T00:47:36;2.94;78.75
69225;DHT22;56333;51.306;17.056;2022-12-20T00:49:05;2.92;78.95
69225;DHT22;56333;51.306;17.056;2022-12-20T00:50:34;2.91;79.28
69225;DHT22;56333;51.306;17.056;2022-12-20T00:52:03;2.93;79.50
69225;DHT22;56333;51.306;17.056;2022-12-20T00:53:32;2.94;79.63
69225;DHT22;56333;51.306;17.056;2022-12-20T00:55:03;2.92;79.45
69225;DHT22;56333;51.306;17.056;2022-12-20T00:56:33;2.90;79.18
69225;DHT22;56333;51.306;17.056;2022-12-20T00:58:02;2.86;78.90
69225;DHT22;56333;51.306;17.056;2022-12-20T00:59:34;2.81;78.80
69225;DHT22;56333;51.306;17.056;2022-12-20T01:01:02;2.74;78.70
69225;DHT22;56333;51.306;17.056;2022-12-20T01:02:38;2.67;78.63
69225;DHT22;56333;51.306;17.056;2022-12-20T01:04:07;2.62;78.57
69225;DHT22;56333;51.306;17.056;2022-12-20T01:05:36;2.59;78.47
69225;DHT22;56333;51.306;17.056;2022-12-20T01:07:05;2.54;78.55
69225;DHT22;56333;51.306;17.056;2022-12-20T01:08:35;2.49;78.63
69225;DHT22;56333;51.306;17.056;2022-12-20T01:10:05;2.47;78.97
69225;DHT22;56333;51.306;17.056;2022-12-20T01:11:37;2.48;79.43
69225;DHT22;56333;51.306;17.056;2022-12-20T01:13:05;2.49;79.70
69225;DHT22;56333;51.306;17.056;2022-12-20T01:14:34;2.48;79.60
69225;DHT22;56333;51.306;17.056;2022-12-20T01:16:06;2.47;79.45
69225;DHT22;56333;51.306;17.056;2022-12-20T01:17:37;2.48;79.18
69225;DHT22;56333;51.306;17.056;2022-12-20T01:19:06;2.43;79.03
69225;DHT22;56333;51.306;17.056;2022-12-20T01:20:38;2.39;78.90
69225;DHT22;56333;51.306;17.056;2022-12-20T01:22:07;2.36;78.95
69225;DHT22;56333;51.306;17.056;2022-12-20T01:23:37;2.31;78.88
69225;DHT22;56333;51.306;17.056;2022-12-20T01:25:07;2.30;78.80
69225;DHT22;56333;51.306;17.056;2022-12-20T01:26:36;2.28;78.70
69225;DHT22;56333;51.306;17.056;2022-12-20T01:28:05;2.27;79.03
69225;DHT22;56333;51.306;17.056;2022-12-20T01:29:34;2.28;79.43
69225;DHT22;56333;51.306;17.056;2022-12-20T01:31:06;2.29;79.68
69225;DHT22;56333;51.306;17.056;2022-12-20T01:32:36;2.31;79.65
69225;DHT22;56333;51.306;17.056;2022-12-20T01:34:05;2.30;79.43
69225;DHT22;56333;51.306;17.056;2022-12-20T01:35:34;2.29;79.28
69225;DHT22;56333;51.306;17.056;2022-12-20T01:37:03;2.28;79.15
69225;DHT22;56333;51.306;17.056;2022-12-20T01:38:32;2.26;78.97
69225;DHT22;56333;51.306;17.056;2022-12-20T01:40:02;2.23;78.97
69225;DHT22;56333;51.306;17.056;2022-12-20T01:41:35;2.22;79.03
69225;DHT22;56333;51.306;17.056;2022-12-20T01:43:04;2.21;79.05
69225;DHT22;56333;51.306;17.056;2022-12-20T01:45:07;2.21;78.80
69225;DHT22;56333;51.306;17.056;2022-12-20T01:46:49;2.20;78.75
69225;DHT22;56333;51.306;17.056;2022-12-20T01:48:19;2.23;79.00
69225;DHT22;56333;51.306;17.056;2022-12-20T01:49:51;2.29;79.22
69225;DHT22;56333;51.306;17.056;2022-12-20T01:51:22;2.33;79.47
69225;DHT22;56333;51.306;17.056;2022-12-20T01:52:55;2.35;79.43
69225;DHT22;56333;51.306;17.056;2022-12-20T01:54:25;2.39;79.20
69225;DHT22;56333;51.306;17.056;2022-12-20T01:55:58;2.40;79.10
69225;DHT22;56333;51.306;17.056;2022-12-20T01:57:33;2.40;78.90
69225;DHT22;56333;51.306;17.056;2022-12-20T01:59:07;2.41;78.85
69225;DHT22;56333;51.306;17.056;2022-12-20T02:00:37;2.43;78.60
69225;DHT22;56333;51.306;17.056;2022-12-20T02:02:08;2.45;78.45
69225;DHT22;56333;51.306;17.056;2022-12-20T02:03:39;2.46;78.18
69225;DHT22;56333;51.306;17.056;2022-12-20T02:05:11;2.46;78.13
69225;DHT22;56333;51.306;17.056;2022-12-20T02:06:42;2.44;78.18
69225;DHT22;56333;51.306;17.056;2022-12-20T02:08:12;2.44;78.05
69225;DHT22;56333;51.306;17.056;2022-12-20T02:09:43;2.45;77.85
69225;DHT22;56333;51.306;17.056;2022-12-20T02:11:19;2.46;78.07
69225;DHT22;56333;51.306;17.056;2022-12-20T02:13:06;2.48;78.45
69225;DHT22;56333;51.306;17.056;2022-12-20T02:14:52;2.53;78.70
69225;DHT22;56333;51.306;17.056;2022-12-20T02:16:38;2.60;78.75
69225;DHT22;56333;51.306;17.056;2022-12-20T02:18:18;2.60;78.43
69225;DHT22;56333;51.306;17.056;2022-12-20T02:20:09;2.61;78.18
69225;DHT22;56333;51.306;17.056;2022-12-20T02:22:13;2.59;77.97
69225;DHT22;56333;51.306;17.056;2022-12-20T02:24:38;2.56;77.70
69225;DHT22;56333;51.306;17.056;2022-12-20T02:26:49;2.53;77.60
69225;DHT22;56333;51.306;17.056;2022-12-20T02:28:54;2.46;77.38
69225;DHT22;56333;51.306;17.056;2022-12-20T02:30:42;2.43;77.28
69225;DHT22;56333;51.306;17.056;2022-12-20T02:32:15;2.38;77.18
69225;DHT22;56333;51.306;17.056;2022-12-20T02:33:48;2.35;77.10
69225;DHT22;56333;51.306;17.056;2022-12-20T02:35:24;2.35;77.35
69225;DHT22;56333;51.306;17.056;2022-12-20T02:36:56;2.36;77.70
69225;DHT22;56333;51.306;17.056;2022-12-20T02:38:28;2.36;77.95
69225;DHT22;56333;51.306;17.056;2022-12-20T02:39:59;2.38;77.97
69225;DHT22;56333;51.306;17.056;2022-12-20T02:41:32;2.39;77.90
69225;DHT22;56333;51.306;17.056;2022-12-20T02:43:07;2.39;77.60
69225;DHT22;56333;51.306;17.056;2022-12-20T02:44:54;2.39;77.28
69225;DHT22;56333;51.306;17.056;2022-12-20T02:46:39;2.37;77.20
69225;DHT22;56333;51.306;17.056;2022-12-20T02:48:09;2.36;77.07
69225;DHT22;56333;51.306;17.056;2022-12-20T02:49:38;2.35;76.80
69225;DHT22;56333;51.306;17.056;2022-12-20T02:51:09;2.33;76.80
69225;DHT22;56333;51.306;17.056;2022-12-20T02:52:39;2.34;76.78
69225;DHT22;56333;51.306;17.056;2022-12-20T02:54:08;2.33;76.50
69225;DHT22;56333;51.306;17.056;2022-12-20T02:55:41;2.33;76.53
69225;DHT22;56333;51.306;17.056;2022-12-20T02:57:24;2.31;76.63
69225;DHT22;56333;51.306;17.056;2022-12-20T02:59:00;2.32;76.60
69225;DHT22;56333;51.306;17.056;2022-12-20T03:00:39;2.31;76.60
69225;DHT22;56333;51.306;17.056;2022-12-20T03:02:13;2.32;76.43
69225;DHT22;56333;51.306;17.056;2022-12-20T03:03:43;2.31;76.50
69225;DHT22;56333;51.306;17.056;2022-12-20T03:05:12;2.33;76.68
69225;DHT22;56333;51.306;17.056;2022-12-20T03:06:56;2.37;77.03
69225;DHT22;56333;51.306;17.056;2022-12-20T03:08:28;2.40;77.22
69225;DHT22;56333;51.306;17.056;2022-12-20T03:09:58;2.43;77.03
69225;DHT22;56333;51.306;17.056;2022-12-20T03:11:27;2.45;76.80
69225;DHT22;56333;51.306;17.056;2022-12-20T03:12:57;2.45;76.38
69225;DHT22;56333;51.306;17.056;2022-12-20T03:14:27;2.46;76.45
69225;DHT22;56333;51.306;17.056;2022-12-20T03:15:56;2.46;76.38
69225;DHT22;56333;51.306;17.056;2022-12-20T03:17:25;2.46;76.22
69225;DHT22;56333;51.306;17.056;2022-12-20T03:18:54;2.47;76.03
69225;DHT22;56333;51.306;17.056;2022-12-20T03:20:23;2.47;75.85
69225;DHT22;56333;51.306;17.056;2022-12-20T03:21:53;2.46;75.82
69225;DHT22;56333;51.306;17.056;2022-12-20T03:23:22;2.44;75.80
69225;DHT22;56333;51.306;17.056;2022-12-20T03:24:51;2.43;75.60
69225;DHT22;56333;51.306;17.056;2022-12-20T03:26:20;2.42;75.50
69225;DHT22;56333;51.306;17.056;2022-12-20T03:27:53;2.41;75.57
69225;DHT22;56333;51.306;17.056;2022-12-20T03:29:22;2.43;75.85
69225;DHT22;56333;51.306;17.056;2022-12-20T03:30:51;2.47;76.05
69225;DHT22;56333;51.306;17.056;2022-12-20T03:32:20;2.48;76.18
69225;DHT22;56333;51.306;17.056;2022-12-20T03:33:48;2.53;76.25
69225;DHT22;56333;51.306;17.056;2022-12-20T03:35:17;2.56;76.18
69225;DHT22;56333;51.306;17.056;2022-12-20T03:36:46;2.58;75.90
69225;DHT22;56333;51.306;17.056;2022-12-20T03:38:15;2.60;75.75
69225;DHT22;56333;51.306;17.056;2022-12-20T03:39:44;2.62;75.60
69225;DHT22;56333;51.306;17.056;2022-12-20T03:41:13;2.62;75.32
69225;DHT22;56333;51.306;17.056;2022-12-20T03:42:42;2.64;75.05
69225;DHT22;56333;51.306;17.056;2022-12-20T03:44:11;2.63;74.80
69225;DHT22;56333;51.306;17.056;2022-12-20T03:45:40;2.63;74.68
69225;DHT22;56333;51.306;17.056;2022-12-20T03:47:08;2.65;74.75
69225;DHT22;56333;51.306;17.056;2022-12-20T03:48:37;2.65;74.75
69225;DHT22;56333;51.306;17.056;2022-12-20T03:50:08;2.65;74.57
69225;DHT22;56333;51.306;17.056;2022-12-20T03:51:38;2.65;74.55
69225;DHT22;56333;51.306;17.056;2022-12-20T03:53:07;2.67;74.43
69225;DHT22;56333;51.306;17.056;2022-12-20T03:54:36;2.67;74.28
69225;DHT22;56333;51.306;17.056;2022-12-20T03:56:15;2.67;74.40
69225;DHT22;56333;51.306;17.056;2022-12-20T03:57:43;2.70;74.72
69225;DHT22;56333;51.306;17.056;2022-12-20T03:59:25;2.72;74.90
69225;DHT22;56333;51.306;17.056;2022-12-20T04:00:52;2.73;74.97
69225;DHT22;56333;51.306;17.056;2022-12-20T04:02:33;2.77;74.95
69225;DHT22;56333;51.306;17.056;2022-12-20T04:04:03;2.78;74.53
69225;DHT22;56333;51.306;17.056;2022-12-20T04:05:34;2.77;74.32
69225;DHT22;56333;51.306;17.056;2022-12-20T04:07:03;2.77;74.18
69225;DHT22;56333;51.306;17.056;2022-12-20T04:08:32;2.73;74.00
69225;DHT22;56333;51.306;17.056;2022-12-20T04:10:02;2.74;73.85
69225;DHT22;56333;51.306;17.056;2022-12-20T04:11:33;2.72;73.80
69225;DHT22;56333;51.306;17.056;2022-12-20T04:13:05;2.70;73.85
69225;DHT22;56333;51.306;17.056;2022-12-20T04:14:34;2.69;73.68
69225;DHT22;56333;51.306;17.056;2022-12-20T04:16:03;2.67;73.65
69225;DHT22;56333;51.306;17.056;2022-12-20T04:17:32;2.65;73.60
69225;DHT22;56333;51.306;17.056;2022-12-20T04:19:01;2.63;73.57
69225;DHT22;56333;51.306;17.056;2022-12-20T04:20:37;2.62;73.55
69225;DHT22;56333;51.306;17.056;2022-12-20T04:22:12;2.62;73.82
69225;DHT22;56333;51.306;17.056;2022-12-20T04:23:52;2.63;74.18
69225;DHT22;56333;51.306;17.056;2022-12-20T04:25:24;2.65;74.55
69225;DHT22;56333;51.306;17.056;2022-12-20T04:26:51;2.68;74.50
69225;DHT22;56333;51.306;17.056;2022-12-20T04:28:21;2.72;74.35
69225;DHT22;56333;51.306;17.056;2022-12-20T04:29:50;2.72;74.07
69225;DHT22;56333;51.306;17.056;2022-12-20T04:31:19;2.73;73.82
69225;DHT22;56333;51.306;17.056;2022-12-20T04:32:49;2.74;73.60
69225;DHT22;56333;51.306;17.056;2022-12-20T04:34:19;2.74;73.47
69225;DHT22;56333;51.306;17.056;2022-12-20T04:35:48;2.74;73.30
69225;DHT22;56333;51.306;17.056;2022-12-20T04:37:18;2.73;73.25
69225;DHT22;56333;51.306;17.056;2022-12-20T04:38:50;2.70;73.22
69225;DHT22;56333;51.306;17.056;2022-12-20T04:40:18;2.68;73.35
69225;DHT22;56333;51.306;17.056;2022-12-20T04:41:52;2.66;73.30
69225;DHT22;56333;51.306;17.056;2022-12-20T04:43:21;2.64;73.28
69225;DHT22;56333;51.306;17.056;2022-12-20T04:44:52;2.63;73.32
69225;DHT22;56333;51.306;17.056;2022-12-20T04:46:23;2.61;73.32
69225;DHT22;56333;51.306;17.056;2022-12-20T04:47:53;2.61;73.55
69225;DHT22;56333;51.306;17.056;2022-12-20T04:49:25;2.62;73.88
69225;DHT22;56333;51.306;17.056;2022-12-20T04:50:55;2.64;74.32
69225;DHT22;56333;51.306;17.056;2022-12-20T04:52:24;2.68;74.55
69225;DHT22;56333;51.306;17.056;2022-12-20T04:54:11;2.72;74.38
69225;DHT22;56333;51.306;17.056;2022-12-20T04:55:46;2.73;74.07
69225;DHT22;56333;51.306;17.056;2022-12-20T04:57:15;2.74;74.00
69225;DHT22;56333;51.306;17.056;2022-12-20T04:58:44;2.74;73.72
69225;DHT22;56333;51.306;17.056;2022-12-20T05:00:15;2.76;73.72
69225;DHT22;56333;51.306;17.056;2022-12-20T05:01:51;2.76;73.60
69225;DHT22;56333;51.306;17.056;2022-12-20T05:04:15;2.73;73.47
69225;DHT22;56333;51.306;17.056;2022-12-20T05:05:44;2.71;73.45
69225;DHT22;56333;51.306;17.056;2022-12-20T05:07:13;2.69;73.43
69225;DHT22;56333;51.306;17.056;2022-12-20T05:08:46;2.68;73.40
69225;DHT22;56333;51.306;17.056;2022-12-20T05:10:15;2.64;73.38
69225;DHT22;56333;51.306;17.056;2022-12-20T05:11:44;2.63;73.43
69225;DHT22;56333;51.306;17.056;2022-12-20T05:13:13;2.63;73.80
69225;DHT22;56333;51.306;17.056;2022-12-20T05:14:43;2.63;74.18
69225;DHT22;56333;51.306;17.056;2022-12-20T05:16:13;2.63;74.35
69225;DHT22;56333;51.306;17.056;2022-12-20T05:17:45;2.65;74.50
69225;DHT22;56333;51.306;17.056;2022-12-20T05:19:14;2.66;74.40
69225;DHT22;56333;51.306;17.056;2022-12-20T05:20:44;2.64;74.10
69225;DHT22;56333;51.306;17.056;2022-12-20T05:22:34;2.64;73.97
69225;DHT22;56333;51.306;17.056;2022-12-20T05:24:21;2.63;73.88
69225;DHT22;56333;51.306;17.056;2022-12-20T05:26:24;2.63;73.65
69225;DHT22;56333;51.306;17.056;2022-12-20T05:27:58;2.60;73.53
69225;DHT22;56333;51.306;17.056;2022-12-20T05:29:30;2.58;73.50
69225;DHT22;56333;51.306;17.056;2022-12-20T05:31:02;2.58;73.47
69225;DHT22;56333;51.306;17.056;2022-12-20T05:32:32;2.58;73.43
69225;DHT22;56333;51.306;17.056;2022-12-20T05:34:01;2.56;73.38
69225;DHT22;56333;51.306;17.056;2022-12-20T05:35:33;2.55;73.35
69225;DHT22;56333;51.306;17.056;2022-12-20T05:37:05;2.56;73.63
69225;DHT22;56333;51.306;17.056;2022-12-20T05:38:37;2.60;74.13
69225;DHT22;56333;51.306;17.056;2022-12-20T05:40:13;2.66;74.38
69225;DHT22;56333;51.306;17.056;2022-12-20T05:41:45;2.67;74.38
69225;DHT22;56333;51.306;17.056;2022-12-20T05:43:19;2.70;74.25
69225;DHT22;56333;51.306;17.056;2022-12-20T05:44:50;2.72;74.10
69225;DHT22;56333;51.306;17.056;2022-12-20T05:46:22;2.76;73.88
69225;DHT22;56333;51.306;17.056;2022-12-20T05:47:56;2.78;73.72
69225;DHT22;56333;51.306;17.056;2022-12-20T05:49:26;2.79;73.60
69225;DHT22;56333;51.306;17.056;2022-12-20T05:50:57;2.80;73.47
69225;DHT22;56333;51.306;17.056;2022-12-20T05:52:32;2.80;73.45
69225;DHT22;56333;51.306;17.056;2022-12-20T05:54:03;2.82;73.45
69225;DHT22;56333;51.306;17.056;2022-12-20T05:55:40;2.83;73.35
69225;DHT22;56333;51.306;17.056;2022-12-20T05:57:14;2.85;73.28
69225;DHT22;56333;51.306;17.056;2022-12-20T05:58:44;2.84;73.28
69225;DHT22;56333;51.306;17.056;2022-12-20T06:00:14;2.84;73.38
69225;DHT22;56333;51.306;17.056;2022-12-20T06:01:48;2.85;73.22
69225;DHT22;56333;51.306;17.056;2022-12-20T06:03:17;2.86;73.47
69225;DHT22;56333;51.306;17.056;2022-12-20T06:04:47;2.88;73.93
69225;DHT22;56333;51.306;17.056;2022-12-20T06:06:22;2.93;74.32
69225;DHT22;56333;51.306;17.056;2022-12-20T06:07:51;2.98;74.22
69225;DHT22;56333;51.306;17.056;2022-12-20T06:09:21;3.02;74.10
69225;DHT22;56333;51.306;17.056;2022-12-20T06:10:59;3.04;73.88
69225;DHT22;56333;51.306;17.056;2022-12-20T06:12:30;3.06;73.65
69225;DHT22;56333;51.306;17.056;2022-12-20T06:13:59;3.08;73.50
69225;DHT22;56333;51.306;17.056;2022-12-20T06:15:29;3.09;73.53
69225;DHT22;56333;51.306;17.056;2022-12-20T06:16:58;3.10;73.30
69225;DHT22;56333;51.306;17.056;2022-12-20T06:18:29;3.12;73.28
69225;DHT22;56333;51.306;17.056;2022-12-20T06:20:00;3.12;73.20
69225;DHT22;56333;51.306;17.056;2022-12-20T06:21:31;3.13;73.18
69225;DHT22;56333;51.306;17.056;2022-12-20T06:23:01;3.14;72.97
69225;DHT22;56333;51.306;17.056;2022-12-20T06:24:38;3.13;72.88
69225;DHT22;56333;51.306;17.056;2022-12-20T06:26:07;3.13;72.95
69225;DHT22;56333;51.306;17.056;2022-12-20T06:27:44;3.13;72.93
69225;DHT22;56333;51.306;17.056;2022-12-20T06:29:13;3.14;73.28
69225;DHT22;56333;51.306;17.056;2022-12-20T06:30:54;3.16;73.55
69225;DHT22;56333;51.306;17.056;2022-12-20T06:32:38;3.22;73.95
69225;DHT22;56333;51.306;17.056;2022-12-20T06:34:09;3.27;73.97
69225;DHT22;56333;51.306;17.056;2022-12-20T06:35:39;3.31;73.80
69225;DHT22;56333;51.306;17.056;2022-12-20T06:37:08;3.34;73.57
69225;DHT22;56333;51.306;17.056;2022-12-20T06:38:38;3.35;73.35
69225;DHT22;56333;51.306;17.056;2022-12-20T06:40:09;3.38;73.07
69225;DHT22;56333;51.306;17.056;2022-12-20T06:41:41;3.38;72.97
69225;DHT22;56333;51.306;17.056;2022-12-20T06:43:11;3.39;72.90
69225;DHT22;56333;51.306;17.056;2022-12-20T06:44:40;3.41;72.75
69225;DHT22;56333;51.306;17.056;2022-12-20T06:46:11;3.40;72.63
69225;DHT22;56333;51.306;17.056;2022-12-20T06:47:44;3.40;72.55
69225;DHT22;56333;51.306;17.056;2022-12-20T06:49:14;3.40;72.55
69225;DHT22;56333;51.306;17.056;2022-12-20T06:50:49;3.40;72.57
69225;DHT22;56333;51.306;17.056;2022-12-20T06:52:18;3.38;72.57
69225;DHT22;56333;51.306;17.056;2022-12-20T06:53:51;3.39;72.57
69225;DHT22;56333;51.306;17.056;2022-12-20T06:55:22;3.38;72.57
69225;DHT22;56333;51.306;17.056;2022-12-20T06:56:50;3.37;72.70
69225;DHT22;56333;51.306;17.056;2022-12-20T06:58:19;3.36;72.60
69225;DHT22;56333;51.306;17.056;2022-12-20T06:59:48;3.35;72.68
69225;DHT22;56333;51.306;17.056;2022-12-20T07:01:17;3.38;73.03
69225;DHT22;56333;51.306;17.056;2022-12-20T07:02:47;3.40;73.28
69225;DHT22;56333;51.306;17.056;2022-12-20T07:04:16;3.44;73.65
69225;DHT22;56333;51.306;17.056;2022-12-20T07:05:51;3.48;73.78
69225;DHT22;56333;51.306;17.056;2022-12-20T07:07:23;3.53;73.63
69225;DHT22;56333;51.306;17.056;2022-12-20T07:08:54;3.56;73.47
69225;DHT22;56333;51.306;17.056;2022-12-20T07:10:24;3.58;73.30
69225;DHT22;56333;51.306;17.056;2022-12-20T07:11:53;3.59;73.05
69225;DHT22;56333;51.306;17.056;2022-12-20T07:13:23;3.61;72.88
69225;DHT22;56333;51.306;17.056;2022-12-20T07:14:52;3.59;72.82
69225;DHT22;56333;51.306;17.056;2022-12-20T07:16:22;3.60;72.85
69225;DHT22;56333;51.306;17.056;2022-12-20T07:17:52;3.60;72.80
69225;DHT22;56333;51.306;17.056;2022-12-20T07:19:20;3.62;72.63
69225;DHT22;56333;51.306;17.056;2022-12-20T07:20:50;3.62;72.40
69225;DHT22;56333;51.306;17.056;2022-12-20T07:22:19;3.62;72.35
69225;DHT22;56333;51.306;17.056;2022-12-20T07:23:48;3.61;72.35
69225;DHT22;56333;51.306;17.056;2022-12-20T07:25:17;3.58;72.28
69225;DHT22;56333;51.306;17.056;2022-12-20T07:26:47;3.59;72.35
69225;DHT22;56333;51.306;17.056;2022-12-20T07:28:16;3.60;72.28
69225;DHT22;56333;51.306;17.056;2022-12-20T07:29:45;3.60;72.10
69225;DHT22;56333;51.306;17.056;2022-12-20T07:31:15;3.60;72.32
69225;DHT22;56333;51.306;17.056;2022-12-20T07:32:44;3.63;72.32
69225;DHT22;56333;51.306;17.056;2022-12-20T07:34:14;3.65;72.57
69225;DHT22;56333;51.306;17.056;2022-12-20T07:35:43;3.70;72.90
69225;DHT22;56333;51.306;17.056;2022-12-20T07:37:12;3.77;73.03
69225;DHT22;56333;51.306;17.056;2022-12-20T07:38:42;3.83;73.30
69225;DHT22;56333;51.306;17.056;2022-12-20T07:40:14;3.90;73.15
69225;DHT22;56333;51.306;17.056;2022-12-20T07:41:44;3.93;72.85
69225;DHT22;56333;51.306;17.056;2022-12-20T07:43:14;3.97;72.68
69225;DHT22;56333;51.306;17.056;2022-12-20T07:44:43;4.01;72.45
69225;DHT22;56333;51.306;17.056;2022-12-20T07:46:13;4.03;72.28
69225;DHT22;56333;51.306;17.056;2022-12-20T07:47:43;4.07;72.15
69225;DHT22;56333;51.306;17.056;2022-12-20T07:49:12;4.08;71.95
69225;DHT22;56333;51.306;17.056;2022-12-20T07:50:41;4.10;71.82
69225;DHT22;56333;51.306;17.056;2022-12-20T07:52:13;4.10;71.78
69225;DHT22;56333;51.306;17.056;2022-12-20T07:53:41;4.11;71.85
69225;DHT22;56333;51.306;17.056;2022-12-20T07:55:14;4.13;71.70
69225;DHT22;56333;51.306;17.056;2022-12-20T07:56:46;4.14;71.72
69225;DHT22;56333;51.306;17.056;2022-12-20T07:58:18;4.16;71.60
69225;DHT22;56333;51.306;17.056;2022-12-20T07:59:50;4.17;71.43
69225;DHT22;56333;51.306;17.056;2022-12-20T08:01:24;4.16;71.55
69225;DHT22;56333;51.306;17.056;2022-12-20T08:02:55;4.16;71.43
69225;DHT22;56333;51.306;17.056;2022-12-20T08:04:27;4.16;71.35
69225;DHT22;56333;51.306;17.056;2022-12-20T08:06:00;4.12;71.25
69225;DHT22;56333;51.306;17.056;2022-12-20T08:07:32;4.09;71.18
69225;DHT22;56333;51.306;17.056;2022-12-20T08:09:04;4.04;71.07
69225;DHT22;56333;51.306;17.056;2022-12-20T08:10:37;4.03;71.25
69225;DHT22;56333;51.306;17.056;2022-12-20T08:12:06;4.00;71.18
69225;DHT22;56333;51.306;17.056;2022-12-20T08:13:37;3.97;71.25
69225;DHT22;56333;51.306;17.056;2022-12-20T08:15:08;3.95;71.22
69225;DHT22;56333;51.306;17.056;2022-12-20T08:16:37;3.94;71.60
69225;DHT22;56333;51.306;17.056;2022-12-20T08:18:08;3.95;72.03
69225;DHT22;56333;51.306;17.056;2022-12-20T08:19:37;3.98;72.10
69225;DHT22;56333;51.306;17.056;2022-12-20T08:21:06;4.01;72.47
69225;DHT22;56333;51.306;17.056;2022-12-20T08:22:37;4.07;72.43
69225;DHT22;56333;51.306;17.056;2022-12-20T08:24:07;4.07;72.07
69225;DHT22;56333;51.306;17.056;2022-12-20T08:25:36;4.05;71.82
69225;DHT22;56333;51.306;17.056;2022-12-20T08:27:06;4.04;71.65
69225;DHT22;56333;51.306;17.056;2022-12-20T08:28:36;4.01;71.55
69225;DHT22;56333;51.306;17.056;2022-12-20T08:30:08;4.00;71.57
69225;DHT22;56333;51.306;17.056;2022-12-20T08:31:39;4.00;71.55
69225;DHT22;56333;51.306;17.056;2022-12-20T08:33:08;4.00;71.38
69225;DHT22;56333;51.306;17.056;2022-12-20T08:34:37;4.00;71.47
69225;DHT22;56333;51.306;17.056;2022-12-20T08:36:08;4.00;71.47
69225;DHT22;56333;51.306;17.056;2022-12-20T08:37:38;4.00;71.47
69225;DHT22;56333;51.306;17.056;2022-12-20T08:39:07;4.01;71.38
69225;DHT22;56333;51.306;17.056;2022-12-20T08:40:36;3.98;71.30
69225;DHT22;56333;51.306;17.056;2022-12-20T08:42:06;3.97;71.35
69225;DHT22;56333;51.306;17.056;2022-12-20T08:43:35;3.97;71.43
69225;DHT22;56333;51.306;17.056;2022-12-20T08:45:06;3.96;71.45
69225;DHT22;56333;51.306;17.056;2022-12-20T08:46:36;3.98;71.53
69225;DHT22;56333;51.306;17.056;2022-12-20T08:48:05;4.01;71.53
69225;DHT22;56333;51.306;17.056;2022-12-20T08:49:34;4.04;71.43
69225;DHT22;56333;51.306;17.056;2022-12-20T08:51:05;4.05;71.32
69225;DHT22;56333;51.306;17.056;2022-12-20T08:52:35;4.07;71.35
69225;DHT22;56333;51.306;17.056;2022-12-20T08:54:05;4.09;71.65
69225;DHT22;56333;51.306;17.056;2022-12-20T08:55:34;4.13;72.03
69225;DHT22;56333;51.306;17.056;2022-12-20T08:57:04;4.21;72.38
69225;DHT22;56333;51.306;17.056;2022-12-20T08:58:33;4.27;72.43
69225;DHT22;56333;51.306;17.056;2022-12-20T09:00:04;4.32;72.28
69225;DHT22;56333;51.306;17.056;2022-12-20T09:01:36;4.39;71.93
69225;DHT22;56333;51.306;17.056;2022-12-20T09:03:04;4.45;71.78
69225;DHT22;56333;51.306;17.056;2022-12-20T09:04:35;4.52;71.57
69225;DHT22;56333;51.306;17.056;2022-12-20T09:06:07;4.58;71.20
69225;DHT22;56333;51.306;17.056;2022-12-20T09:07:39;4.63;71.15
69225;DHT22;56333;51.306;17.056;2022-12-20T09:09:09;4.70;70.95
69225;DHT22;56333;51.306;17.056;2022-12-20T09:10:38;4.78;71.03
69225;DHT22;56333;51.306;17.056;2022-12-20T09:12:07;4.85;70.95
69225;DHT22;56333;51.306;17.056;2022-12-20T09:13:38;4.95;70.75
69225;DHT22;56333;51.306;17.056;2022-12-20T09:15:10;5.03;70.60
69225;DHT22;56333;51.306;17.056;2022-12-20T09:16:39;5.10;70.53
69225;DHT22;56333;51.306;17.056;2022-12-20T09:18:08;5.15;70.50
69225;DHT22;56333;51.306;17.056;2022-12-20T09:19:38;5.20;70.15
69225;DHT22;56333;51.306;17.056;2022-12-20T09:21:07;5.22;69.80
69225;DHT22;56333;51.306;17.056;2022-12-20T09:22:38;5.28;69.97
69225;DHT22;56333;51.306;17.056;2022-12-20T09:24:08;5.34;69.97
69225;DHT22;56333;51.306;17.056;2022-12-20T09:25:37;5.39;69.90
69225;DHT22;56333;51.306;17.056;2022-12-20T09:27:06;5.43;69.70
69225;DHT22;56333;51.306;17.056;2022-12-20T09:28:35;5.46;69.32
69225;DHT22;56333;51.306;17.056;2022-12-20T09:30:07;5.51;69.15
69225;DHT22;56333;51.306;17.056;2022-12-20T09:31:37;5.56;68.93
69225;DHT22;56333;51.306;17.056;2022-12-20T09:33:06;5.58;69.07
69225;DHT22;56333;51.306;17.056;2022-12-20T09:34:36;5.63;68.97
69225;DHT22;56333;51.306;17.056;2022-12-20T09:36:06;5.64;68.85
69225;DHT22;56333;51.306;17.056;2022-12-20T09:37:37;5.68;68.82
69225;DHT22;56333;51.306;17.056;2022-12-20T09:39:07;5.70;68.63
69225;DHT22;56333;51.306;17.056;2022-12-20T09:40:37;5.70;68.45